createdAt,value
2022-12-19T00:01:31.089Z,101624.03
2022-12-19T00:03:58.211Z,101640.41
2022-12-19T00:06:24.654Z,101633.09
2022-12-19T00:08:51.189Z,101621.84
2022-12-19T00:11:17.587Z,101625.19
2022-12-19T00:13:43.980Z,101638.28
2022-12-19T00:16:13.877Z,101633.31
2022-12-19T00:18:40.429Z,101643.50
2022-12-19T00:21:06.624Z,101636.44
2022-12-19T00:23:33.177Z,101623.22
2022-12-19T00:26:08.572Z,101604.59
2022-12-19T00:28:34.778Z,101603.66
2022-12-19T00:31:01.413Z,101596.34
2022-12-19T00:33:27.616Z,101609.09
2022-12-19T00:35:57.545Z,101604.13
2022-12-19T00:38:23.756Z,101606.78
2022-12-19T00:40:49.951Z,101593.34
2022-12-19T00:43:16.156Z,101582.09
2022-12-19T00:45:42.413Z,101591.84
2022-12-19T00:48:08.656Z,101593.59
2022-12-19T00:50:36.632Z,101596.34
2022-12-19T00:53:02.835Z,101592.19
2022-12-19T00:55:29.032Z,101577.56
2022-12-19T00:57:55.259Z,101575.28
2022-12-19T01:00:24.423Z,101561.03
2022-12-19T01:02:50.708Z,101568.66
2022-12-19T01:05:16.946Z,101575.75
2022-12-19T01:07:43.174Z,101561.84
2022-12-19T01:10:09.515Z,101541.78
2022-12-19T01:12:35.964Z,101543.31
2022-12-19T01:15:04.957Z,101541.69
2022-12-19T01:17:31.488Z,101546.19
2022-12-19T01:19:57.684Z,101550.38
2022-12-19T01:22:23.894Z,101551.78
2022-12-19T01:24:50.099Z,101555.03
2022-12-19T01:27:16.301Z,101560.44
2022-12-19T01:29:52.542Z,101559.06
2022-12-19T01:32:19.212Z,101555.94
2022-12-19T01:34:45.407Z,101546.97
2022-12-19T01:37:11.600Z,101555.47
2022-12-19T01:39:37.807Z,101551.91
2022-12-19T01:42:10.228Z,101551.41
2022-12-19T01:44:36.437Z,101541.91
2022-12-19T01:47:02.641Z,101528.91
2022-12-19T01:49:33.358Z,101528.16
2022-12-19T01:52:00.116Z,101533.31
2022-12-19T01:54:27.131Z,101528.59
2022-12-19T01:56:53.595Z,101527.78
2022-12-19T01:59:20.588Z,101535.75
2022-12-19T02:01:51.617Z,101515.59
2022-12-19T02:04:18.370Z,101499.47
2022-12-19T02:06:44.583Z,101508.31
2022-12-19T02:09:11.064Z,101493.59
2022-12-19T02:11:37.253Z,101483.88
2022-12-19T02:14:03.481Z,101482.25
2022-12-19T02:16:34.000Z,101490.59
2022-12-19T02:19:04.302Z,101490.66
2022-12-19T02:21:35.675Z,101488.91
2022-12-19T02:24:11.078Z,101476.53
2022-12-19T02:26:49.347Z,101467.38
2022-12-19T02:29:33.642Z,101461.34
2022-12-19T02:32:16.153Z,101464.81
2022-12-19T02:34:49.550Z,101459.59
2022-12-19T02:37:20.903Z,101439.91
2022-12-19T02:39:58.931Z,101440.81
2022-12-19T02:42:26.601Z,101445.81
2022-12-19T02:44:55.026Z,101438.97
2022-12-19T02:47:21.253Z,101446.13
2022-12-19T02:49:47.452Z,101434.81
2022-12-19T02:52:19.733Z,101444.63
2022-12-19T02:54:46.337Z,101431.19
2022-12-19T02:57:12.486Z,101418.56
2022-12-19T02:59:38.647Z,101417.03
2022-12-19T03:02:08.020Z,101419.81
2022-12-19T03:04:56.398Z,101400.72
2022-12-19T03:07:42.546Z,101393.41
2022-12-19T03:10:29.806Z,101392.16
2022-12-19T03:13:00.843Z,101393.41
2022-12-19T03:15:27.067Z,101372.13
2022-12-19T03:17:56.072Z,101378.97
2022-12-19T03:20:23.938Z,101387.41
2022-12-19T03:22:50.142Z,101396.31
2022-12-19T03:25:16.357Z,101396.19
2022-12-19T03:27:42.563Z,101386.09
2022-12-19T03:30:10.132Z,101370.69
2022-12-19T03:32:36.460Z,101371.28
2022-12-19T03:35:06.388Z,101378.72
2022-12-19T03:37:34.530Z,101394.69
2022-12-19T03:40:01.175Z,101409.78
2022-12-19T03:42:27.573Z,101408.84
2022-12-19T03:44:53.777Z,101420.19
2022-12-19T03:47:24.169Z,101416.50
2022-12-19T03:49:50.944Z,101432.13
2022-12-19T03:52:21.758Z,101431.63
2022-12-19T03:55:01.044Z,101412.88
2022-12-19T03:57:34.728Z,101410.75
2022-12-19T04:00:02.378Z,101417.78
2022-12-19T04:02:28.713Z,101406.06
2022-12-19T04:05:02.223Z,101401.56
2022-12-19T04:07:28.431Z,101396.81
2022-12-19T04:09:54.653Z,101398.16
2022-12-19T04:12:26.094Z,101400.97
2022-12-19T04:14:52.295Z,101391.00
2022-12-19T04:17:26.907Z,101382.03
2022-12-19T04:19:53.076Z,101373.56
2022-12-19T04:22:23.494Z,101375.19
2022-12-19T04:24:49.697Z,101380.28
2022-12-19T04:27:15.897Z,101370.75
2022-12-19T04:29:42.095Z,101380.91
2022-12-19T04:32:08.324Z,101376.88
2022-12-19T04:34:36.856Z,101368.00
2022-12-19T04:37:06.375Z,101364.09
2022-12-19T04:39:32.769Z,101360.34
2022-12-19T04:41:59.001Z,101367.41
2022-12-19T04:44:25.209Z,101354.91
2022-12-19T04:46:51.432Z,101365.00
2022-12-19T04:49:17.695Z,101352.66
2022-12-19T04:51:43.898Z,101335.97
2022-12-19T04:54:10.093Z,101337.38
2022-12-19T04:56:36.292Z,101355.25
2022-12-19T04:59:02.505Z,101384.91
2022-12-19T05:01:28.808Z,101390.31
2022-12-19T05:03:58.663Z,101371.72
2022-12-19T05:06:27.558Z,101374.16
2022-12-19T05:08:53.771Z,101373.88
2022-12-19T05:11:20.187Z,101376.88
2022-12-19T05:13:46.448Z,101379.53
2022-12-19T05:16:12.784Z,101374.69
2022-12-19T05:18:39.057Z,101366.78
2022-12-19T05:21:05.532Z,101370.13
2022-12-19T05:23:31.758Z,101364.66
2022-12-19T05:25:58.180Z,101372.19
2022-12-19T05:28:24.390Z,101376.66
2022-12-19T05:30:52.460Z,101370.06
2022-12-19T05:33:18.926Z,101377.72
2022-12-19T05:35:45.125Z,101376.53
2022-12-19T05:38:11.333Z,101393.00
2022-12-19T05:40:37.544Z,101390.03
2022-12-19T05:43:04.096Z,101383.09
2022-12-19T05:45:30.320Z,101386.31
2022-12-19T05:48:01.093Z,101391.84
2022-12-19T05:50:27.612Z,101381.34
2022-12-19T05:52:53.816Z,101368.16
2022-12-19T05:55:20.257Z,101374.34
2022-12-19T05:57:46.477Z,101390.47
2022-12-19T06:00:12.951Z,101389.53
2022-12-19T06:02:39.222Z,101375.56
2022-12-19T06:05:05.666Z,101378.38
2022-12-19T06:07:31.882Z,101371.53
2022-12-19T06:09:58.073Z,101394.38
2022-12-19T06:12:24.294Z,101403.28
2022-12-19T06:14:50.490Z,101404.88
2022-12-19T06:17:16.712Z,101406.41
2022-12-19T06:19:43.194Z,101413.69
2022-12-19T06:22:09.407Z,101423.28
2022-12-19T06:24:35.615Z,101401.72
2022-12-19T06:27:01.848Z,101411.94
2022-12-19T06:29:28.063Z,101418.81
2022-12-19T06:31:54.304Z,101432.25
2022-12-19T06:34:39.873Z,101439.44
2022-12-19T06:37:08.473Z,101437.69
2022-12-19T06:39:34.847Z,101436.88
2022-12-19T06:42:01.045Z,101455.03
2022-12-19T06:44:27.258Z,101442.00
2022-12-19T06:46:53.453Z,101437.00
2022-12-19T06:49:19.670Z,101437.00
2022-12-19T06:51:46.016Z,101444.56
2022-12-19T06:54:13.064Z,101437.56
2022-12-19T06:56:39.754Z,101435.13
2022-12-19T06:59:06.049Z,101437.56
2022-12-19T07:01:38.976Z,101438.91
2022-12-19T07:04:05.249Z,101445.78
2022-12-19T07:06:31.470Z,101435.81
2022-12-19T07:08:57.679Z,101439.06
2022-12-19T07:11:23.879Z,101430.47
2022-12-19T07:13:50.143Z,101427.63
2022-12-19T07:16:16.408Z,101438.97
2022-12-19T07:18:42.661Z,101423.06
2022-12-19T07:21:08.854Z,101420.41
2022-12-19T07:23:35.064Z,101414.22
2022-12-19T07:26:01.281Z,101394.69
2022-12-19T07:28:27.519Z,101383.81
2022-12-19T07:30:53.726Z,101381.91
2022-12-19T07:33:21.932Z,101378.56
2022-12-19T07:35:48.450Z,101396.34
2022-12-19T07:38:14.681Z,101382.22
2022-12-19T07:40:40.891Z,101386.41
2022-12-19T07:43:07.107Z,101370.38
2022-12-19T07:45:33.376Z,101374.28
2022-12-19T07:48:00.061Z,101359.63
2022-12-19T07:50:26.284Z,101352.47
2022-12-19T07:52:52.488Z,101360.28
2022-12-19T07:55:18.709Z,101355.97
2022-12-19T07:57:44.901Z,101369.44
2022-12-19T08:00:11.232Z,101351.25
2022-12-19T08:02:37.531Z,101343.72
2022-12-19T08:05:04.077Z,101337.94
2022-12-19T08:07:30.278Z,101342.25
2022-12-19T08:09:56.492Z,101335.28
2022-12-19T08:12:22.704Z,101327.19
2022-12-19T08:14:51.584Z,101316.00
2022-12-19T08:17:21.373Z,101307.09
2022-12-19T08:19:47.899Z,101314.75
2022-12-19T08:22:14.089Z,101303.06
2022-12-19T08:24:40.319Z,101297.78
2022-12-19T08:27:06.532Z,101294.00
2022-12-19T08:29:32.737Z,101277.69
2022-12-19T08:31:58.940Z,101290.47
2022-12-19T08:34:25.161Z,101272.69
2022-12-19T08:36:51.359Z,101268.53
2022-12-19T08:39:17.561Z,101274.53
2022-12-19T08:41:43.768Z,101279.94
2022-12-19T08:44:10.563Z,101260.69
2022-12-19T08:46:36.819Z,101251.09
2022-12-19T08:49:03.062Z,101253.13
2022-12-19T08:51:29.269Z,101246.91
2022-12-19T08:53:55.493Z,101235.97
2022-12-19T08:56:21.810Z,101238.38
2022-12-19T08:58:48.043Z,101216.94
2022-12-19T09:01:15.023Z,101222.31
2022-12-19T09:04:06.566Z,101219.75
2022-12-19T09:06:27.512Z,101216.75
2022-12-19T09:08:53.768Z,101233.22
2022-12-19T09:11:26.589Z,101222.19
2022-12-19T09:13:52.800Z,101223.06
2022-12-19T09:16:20.036Z,101212.69
2022-12-19T09:18:48.761Z,101212.00
2022-12-19T09:21:15.314Z,101201.31
2022-12-19T09:23:41.595Z,101190.59
2022-12-19T09:26:10.156Z,101167.25
2022-12-19T09:28:36.622Z,101149.31
2022-12-19T09:31:03.702Z,101142.56
2022-12-19T09:33:30.641Z,101172.81
2022-12-19T09:35:56.931Z,101161.38
2022-12-19T09:38:23.344Z,101186.44
2022-12-19T09:40:55.593Z,101192.63
2022-12-19T09:43:26.700Z,101219.16
2022-12-19T09:45:56.404Z,101223.06
2022-12-19T09:48:24.732Z,101245.06
2022-12-19T09:50:53.820Z,101252.47
2022-12-19T09:53:43.136Z,101237.75
2022-12-19T09:56:10.915Z,101254.38
2022-12-19T09:58:44.936Z,101275.66
2022-12-19T10:01:21.148Z,101260.06
2022-12-19T10:03:49.850Z,101273.44
2022-12-19T10:07:16.109Z,101277.28
2022-12-19T10:09:57.746Z,101277.63
2022-12-19T10:12:41.314Z,101288.63
2022-12-19T10:14:38.595Z,101282.75
2022-12-19T10:17:28.350Z,101271.22
2022-12-19T10:20:13.651Z,101289.56
2022-12-19T10:22:48.866Z,101273.69
2022-12-19T10:25:15.023Z,101279.94
2022-12-19T10:27:58.579Z,101266.63
2022-12-19T10:30:26.529Z,101282.75
2022-12-19T10:32:57.414Z,101275.19
2022-12-19T10:35:23.650Z,101279.16
2022-12-19T10:38:08.833Z,101295.25
2022-12-19T10:40:45.524Z,101326.09
2022-12-19T10:43:16.360Z,101321.75
2022-12-19T10:45:50.095Z,101329.44
2022-12-19T10:48:17.355Z,101353.03
2022-12-19T10:50:44.680Z,101348.81
2022-12-19T10:53:11.230Z,101375.28
2022-12-19T10:55:45.177Z,101371.38
2022-12-19T10:58:18.826Z,101385.09
2022-12-19T11:00:54.317Z,101395.13
2022-12-19T11:03:20.668Z,101392.53
2022-12-19T11:05:52.649Z,101391.94
2022-12-19T11:08:31.427Z,101391.34
2022-12-19T11:11:57.592Z,101394.91
2022-12-19T11:19:55.546Z,101385.91
2022-12-19T11:22:04.962Z,101379.81
2022-12-19T11:29:25.268Z,101380.63
2022-12-19T11:29:32.463Z,101367.97
2022-12-19T11:29:36.674Z,101356.63
2022-12-19T11:29:41.073Z,101357.75
2022-12-19T11:32:14.040Z,101343.97
2022-12-19T11:33:44.751Z,101332.22
2022-12-19T11:36:11.039Z,101323.38
2022-12-19T11:38:37.284Z,101293.81
2022-12-19T11:41:11.798Z,101282.88
2022-12-19T11:43:44.297Z,101269.88
2022-12-19T11:46:22.210Z,101258.16
2022-12-19T11:49:14.925Z,101252.50
2022-12-19T11:51:48.253Z,101225.00
2022-12-19T11:54:19.470Z,101219.22
2022-12-19T11:56:45.684Z,101213.75
2022-12-19T11:59:24.886Z,101187.38
2022-12-19T12:01:54.747Z,101177.25
2022-12-19T12:04:47.379Z,101161.50
2022-12-19T12:07:59.093Z,101136.75
2022-12-19T12:14:06.264Z,101119.69
2022-12-19T12:17:55.100Z,101110.38
2022-12-19T12:27:19.791Z,101107.81
2022-12-19T12:31:01.541Z,101084.16
2022-12-19T12:31:07.828Z,101062.94
2022-12-19T12:31:44.953Z,101022.91
2022-12-19T12:31:46.046Z,101038.81
2022-12-19T12:35:35.104Z,100994.25
2022-12-19T12:35:48.611Z,101004.56
2022-12-19T12:40:23.752Z,100964.81
2022-12-19T12:42:53.817Z,100957.09
2022-12-19T12:45:22.598Z,100943.25
2022-12-19T12:47:49.568Z,100922.69
2022-12-19T12:50:16.415Z,100909.66
2022-12-19T12:52:43.758Z,100911.16
2022-12-19T12:55:28.956Z,100883.25
2022-12-19T12:57:55.263Z,100884.88
2022-12-19T13:00:24.957Z,100863.66
2022-12-19T13:03:05.614Z,100862.50
2022-12-19T13:05:32.111Z,100845.00
2022-12-19T13:07:58.644Z,100844.31
2022-12-19T13:10:28.751Z,100838.03
2022-12-19T13:12:56.991Z,100833.91
2022-12-19T13:15:34.166Z,100825.44
2022-12-19T13:18:31.063Z,100804.00
2022-12-19T13:20:57.477Z,100785.75
2022-12-19T13:23:29.874Z,100771.47
2022-12-19T13:25:58.685Z,100762.50
2022-12-19T13:28:32.395Z,100747.34
2022-12-19T13:31:19.481Z,100735.72
2022-12-19T13:33:55.900Z,100688.59
2022-12-19T13:39:50.342Z,100686.75
2022-12-19T13:39:56.270Z,100680.53
2022-12-19T13:42:21.227Z,100668.19
2022-12-19T13:44:47.475Z,100651.53
2022-12-19T13:47:16.561Z,100637.50
2022-12-19T13:49:45.198Z,100627.03
2022-12-19T13:52:11.512Z,100617.72
2022-12-19T13:54:44.779Z,100604.59
2022-12-19T13:57:20.777Z,100587.56
2022-12-19T13:59:59.556Z,100563.94
2022-12-19T14:02:28.650Z,100554.63
2022-12-19T14:04:55.202Z,100549.53
2022-12-19T14:07:34.810Z,100542.63
2022-12-19T14:11:26.292Z,100526.81
2022-12-19T14:13:55.925Z,100519.09
2022-12-19T14:15:37.166Z,100506.38
2022-12-19T14:18:44.799Z,100494.50
2022-12-19T14:22:05.444Z,100488.19
2022-12-19T14:24:08.188Z,100482.69
2022-12-19T14:28:19.924Z,100478.78
2022-12-19T14:29:55.889Z,100471.41
2022-12-19T14:33:53.577Z,100460.59
2022-12-19T14:36:06.707Z,100457.41
2022-12-19T14:39:25.665Z,100441.31
2022-12-19T14:40:34.381Z,100436.63
2022-12-19T14:43:59.738Z,100431.28
2022-12-19T14:53:17.578Z,100400.78
2022-12-19T14:54:15.865Z,100394.19
2022-12-19T14:54:32.220Z,100387.34
2022-12-19T14:56:11.570Z,100385.56
2022-12-19T14:57:16.043Z,100380.84
2022-12-19T15:00:02.410Z,100369.38
2022-12-19T15:02:33.037Z,100364.19
2022-12-19T15:05:01.834Z,100352.13
2022-12-19T15:07:28.604Z,100338.63
2022-12-19T15:11:00.907Z,100331.53
2022-12-19T15:14:49.362Z,100322.22
2022-12-19T15:15:37.466Z,100299.13
2022-12-19T15:18:03.849Z,100297.78
2022-12-19T15:20:30.142Z,100289.22
2022-12-19T15:22:56.354Z,100287.00
2022-12-19T15:25:44.076Z,100267.84
2022-12-19T15:28:13.004Z,100248.44
2022-12-19T15:30:39.230Z,100247.84
2022-12-19T15:33:08.863Z,100229.63
2022-12-19T15:35:35.083Z,100226.28
2022-12-19T15:38:01.287Z,100214.22
2022-12-19T15:40:29.203Z,100208.47
2022-12-19T15:42:55.706Z,100201.78
2022-12-19T15:45:21.922Z,100191.22
2022-12-19T15:47:48.125Z,100179.00
2022-12-19T15:50:15.750Z,100165.91
2022-12-19T15:52:41.964Z,100160.38
2022-12-19T15:55:11.877Z,100153.03
2022-12-19T15:57:39.410Z,100137.00
2022-12-19T16:00:32.037Z,100130.09
2022-12-19T16:03:23.513Z,100120.94
2022-12-19T16:05:44.499Z,100104.50
2022-12-19T16:08:15.195Z,100097.97
2022-12-19T16:10:41.737Z,100081.56
2022-12-19T16:13:15.352Z,100073.03
2022-12-19T16:15:41.675Z,100067.88
2022-12-19T16:18:09.817Z,100053.81
2022-12-19T16:20:36.077Z,100048.47
2022-12-19T16:23:02.325Z,100035.41
2022-12-19T16:25:33.395Z,100031.44
2022-12-19T16:27:59.606Z,100028.28
2022-12-19T16:30:27.981Z,100018.38
2022-12-19T16:32:54.243Z,100010.63
2022-12-19T16:35:40.239Z,100000.53
2022-12-19T16:38:08.101Z,99984.47
2022-12-19T16:40:34.308Z,99988.25
2022-12-19T16:43:04.628Z,99971.22
2022-12-19T16:45:30.832Z,99956.31
2022-12-19T16:47:57.040Z,99951.38
2022-12-19T16:50:24.189Z,99942.28
2022-12-19T16:52:51.220Z,99936.72
2022-12-19T16:55:17.420Z,99929.00
2022-12-19T16:57:44.345Z,99920.84
2022-12-19T17:00:14.587Z,99911.31
2022-12-19T17:02:45.166Z,99913.75
2022-12-19T17:05:15.371Z,99910.19
2022-12-19T17:07:41.587Z,99904.63
2022-12-19T17:10:07.982Z,99893.34
2022-12-19T17:12:34.191Z,99880.06
2022-12-19T17:15:00.444Z,99874.53
2022-12-19T17:17:26.661Z,99864.22
2022-12-19T17:19:52.894Z,99845.78
2022-12-19T17:22:19.199Z,99838.00
2022-12-19T17:24:45.508Z,99820.53
2022-12-19T17:27:11.922Z,99840.75
2022-12-19T17:29:40.440Z,99826.91
2022-12-19T17:32:06.728Z,99832.84
2022-12-19T17:34:33.033Z,99816.56
2022-12-19T17:36:59.536Z,99800.31
2022-12-19T17:39:26.534Z,99783.66
2022-12-19T17:41:52.748Z,99775.13
2022-12-19T17:44:18.973Z,99754.31
2022-12-19T17:46:45.259Z,99758.09
2022-12-19T17:49:15.756Z,99750.94
2022-12-19T17:51:42.302Z,99735.22
2022-12-19T17:54:11.499Z,99723.69
2022-12-19T17:56:37.693Z,99717.13
2022-12-19T17:59:03.902Z,99710.59
2022-12-19T18:01:30.274Z,99700.59
2022-12-19T18:03:56.593Z,99699.88
2022-12-19T18:06:22.834Z,99690.50
2022-12-19T18:08:49.102Z,99691.09
2022-12-19T18:11:16.854Z,99694.50
2022-12-19T18:13:43.077Z,99681.19
2022-12-19T18:16:09.487Z,99668.53
2022-12-19T18:18:35.735Z,99665.09
2022-12-19T18:21:01.962Z,99655.59
2022-12-19T18:23:28.200Z,99656.16
2022-12-19T18:26:00.843Z,99642.91
2022-12-19T18:28:27.618Z,99635.13
2022-12-19T18:30:53.842Z,99626.59
2022-12-19T18:33:20.813Z,99631.03
2022-12-19T18:35:47.164Z,99624.88
2022-12-19T18:38:17.162Z,99618.44
2022-12-19T18:40:43.405Z,99627.91
2022-12-19T18:43:11.709Z,99628.25
2022-12-19T18:45:39.098Z,99636.63
2022-12-19T18:48:24.096Z,99630.69
2022-12-19T18:50:50.326Z,99627.97
2022-12-19T18:53:17.604Z,99615.50
2022-12-19T18:55:43.818Z,99614.84
2022-12-19T18:58:10.036Z,99599.75
2022-12-19T19:00:36.600Z,99597.41
2022-12-19T19:03:03.356Z,99592.94
2022-12-19T19:05:30.855Z,99574.47
2022-12-19T19:07:57.238Z,99585.91
2022-12-19T19:10:27.219Z,99582.34
2022-12-19T19:12:53.789Z,99586.28
2022-12-19T19:15:20.266Z,99589.50
2022-12-19T19:17:47.293Z,99585.44
2022-12-19T19:20:13.515Z,99568.91
2022-12-19T19:22:39.722Z,99569.56
2022-12-19T19:25:06.004Z,99557.25
2022-12-19T19:27:32.219Z,99558.34
2022-12-19T19:29:58.446Z,99561.00
2022-12-19T19:32:24.671Z,99558.06
2022-12-19T19:34:50.870Z,99560.06
2022-12-19T19:37:17.073Z,99572.03
2022-12-19T19:39:43.291Z,99552.16
2022-12-19T19:42:09.647Z,99556.84
2022-12-19T19:44:35.898Z,99538.00
2022-12-19T19:47:02.120Z,99553.75
2022-12-19T19:49:28.347Z,99527.25
2022-12-19T19:52:00.512Z,99511.38
2022-12-19T19:54:28.600Z,99519.03
2022-12-19T19:56:54.818Z,99507.78
2022-12-19T19:59:21.019Z,99508.22
2022-12-19T20:01:47.366Z,99495.66
2022-12-19T20:04:13.885Z,99490.44
2022-12-19T20:06:40.190Z,99487.28
2022-12-19T20:09:06.398Z,99494.03
2022-12-19T20:11:32.623Z,99509.78
2022-12-19T20:13:58.817Z,99491.28
2022-12-19T20:16:25.119Z,99486.72
2022-12-19T20:18:51.814Z,99468.22
2022-12-19T20:21:18.086Z,99480.56
2022-12-19T20:23:44.297Z,99459.03
2022-12-19T20:26:11.049Z,99451.88
2022-12-19T20:28:41.023Z,99439.44
2022-12-19T20:31:12.074Z,99433.56
2022-12-19T20:33:38.319Z,99419.34
2022-12-19T20:36:05.131Z,99420.38
2022-12-19T20:38:31.340Z,99438.84
2022-12-19T20:40:58.236Z,99429.66
2022-12-19T20:43:27.522Z,99427.75
2022-12-19T20:45:59.983Z,99419.56
2022-12-19T20:48:26.325Z,99420.38
2022-12-19T20:50:56.369Z,99408.13
2022-12-19T20:53:22.575Z,99406.84
2022-12-19T20:55:59.179Z,99406.28
2022-12-19T20:58:25.804Z,99395.63
2022-12-19T21:00:55.271Z,99393.94
2022-12-19T21:03:30.174Z,99401.13
2022-12-19T21:05:56.904Z,99404.75
2022-12-19T21:08:23.294Z,99412.25
2022-12-19T21:10:49.532Z,99406.88
2022-12-19T21:13:15.784Z,99420.91
2022-12-19T21:15:42.013Z,99430.00
2022-12-19T21:18:09.234Z,99430.88
2022-12-19T21:20:36.087Z,99445.50
2022-12-19T21:23:02.523Z,99431.25
2022-12-19T21:25:28.749Z,99434.63
2022-12-19T21:27:55.011Z,99407.28
2022-12-19T21:30:21.229Z,99406.06
2022-12-19T21:32:47.445Z,99420.47
2022-12-19T21:35:13.642Z,99405.28
2022-12-19T21:37:43.530Z,99416.50
2022-12-19T21:40:10.259Z,99421.25
2022-12-19T21:42:36.473Z,99431.00
2022-12-19T21:45:02.694Z,99419.09
2022-12-19T21:47:28.923Z,99418.75
2022-12-19T21:49:55.125Z,99442.94
2022-12-19T21:52:21.357Z,99434.72
2022-12-19T21:54:47.576Z,99441.22
2022-12-19T21:57:13.785Z,99432.91
2022-12-19T21:59:39.978Z,99427.97
2022-12-19T22:02:06.354Z,99428.19
2022-12-19T22:04:32.682Z,99424.59
2022-12-19T22:06:58.892Z,99428.09
2022-12-19T22:09:25.123Z,99443.00
2022-12-19T22:11:51.341Z,99422.69
2022-12-19T22:14:17.721Z,99441.44
2022-12-19T22:16:44.169Z,99437.75
2022-12-19T22:19:10.538Z,99426.91
2022-12-19T22:21:36.743Z,99474.59
2022-12-19T22:24:03.942Z,99481.84
2022-12-19T22:26:30.350Z,99498.50
2022-12-19T22:28:56.687Z,99531.16
2022-12-19T22:31:23.628Z,99523.44
2022-12-19T22:33:50.459Z,99526.47
2022-12-19T22:36:20.997Z,99525.09
2022-12-19T22:38:50.334Z,99526.69
2022-12-19T22:41:16.842Z,99531.84
2022-12-19T22:43:43.048Z,99541.91
2022-12-19T22:46:10.210Z,99533.94
2022-12-19T22:48:36.477Z,99547.09
2022-12-19T22:51:02.682Z,99551.38
2022-12-19T22:53:28.894Z,99551.66
2022-12-19T22:55:55.098Z,99551.31
2022-12-19T22:58:21.308Z,99551.03
2022-12-19T23:00:47.547Z,99538.53
2022-12-19T23:03:13.974Z,99536.72
2022-12-19T23:05:40.411Z,99523.25
2022-12-19T23:08:06.625Z,99517.59
2022-12-19T23:10:32.823Z,99525.06
2022-12-19T23:12:59.027Z,99519.72
2022-12-19T23:15:25.237Z,99532.06
2022-12-19T23:17:51.463Z,99540.81
2022-12-19T23:20:17.698Z,99542.13
2022-12-19T23:22:43.917Z,99539.59
2022-12-19T23:25:10.216Z,99547.09
2022-12-19T23:27:36.428Z,99542.47
2022-12-19T23:30:02.625Z,99558.13
2022-12-19T23:32:28.837Z,99547.13
2022-12-19T23:34:55.025Z,99560.03
2022-12-19T23:37:21.243Z,99581.94
2022-12-19T23:39:47.449Z,99595.19
2022-12-19T23:42:13.711Z,99598.09
2022-12-19T23:44:40.099Z,99613.41
2022-12-19T23:47:06.328Z,99599.78
2022-12-19T23:49:32.896Z,99596.50
2022-12-19T23:51:59.118Z,99587.78
2022-12-19T23:54:25.328Z,99602.72
2022-12-19T23:56:51.525Z,99616.38
2022-12-19T23:59:18.073Z,99609.25
